Time;durP1;ratioP1;P1;durP2;ratioP2;P2;SDS_P1;SDS_P2;PMS_P1;PMS_P2;Temp;Humidity;BMP_temperature;BMP_pressure;BME280_temperature;BME280_humidity;BME280_pressure;Samples;Min_cycle;Max_cycle;Signal;HPM_P1;HPM_P2
2024/01/08 00:00:05;;;;;;;8.20;6.70;;;0.70;99.90;;;;;;5023671;28;20220;-61
2024/01/08 00:02:31;;;;;;;8.83;6.53;;;0.70;99.90;;;;;;5030856;28;20218;-61
2024/01/08 00:04:58;;;;;;;10.13;7.23;;;0.60;99.90;;;;;;5027749;28;20226;-61
2024/01/08 00:07:26;;;;;;;11.90;6.87;;;0.70;99.90;;;;;;5032017;28;20722;-62
2024/01/08 00:09:53;;;;;;;9.13;7.03;;;0.60;99.90;;;;;;5032907;28;20300;-61
2024/01/08 00:12:20;;;;;;;8.97;6.30;;;0.60;99.90;;;;;;5029689;28;20203;-62
2024/01/08 00:14:47;;;;;;;9.13;6.80;;;0.50;99.90;;;;;;5039606;28;20205;-61
2024/01/08 00:17:15;;;;;;;8.77;7.00;;;0.60;99.90;;;;;;5031952;28;20223;-61
2024/01/08 00:19:42;;;;;;;10.57;7.63;;;0.40;99.90;;;;;;5031237;28;20282;-61
2024/01/08 00:22:09;;;;;;;9.97;7.53;;;0.40;99.90;;;;;;5030811;28;20635;-61
2024/01/08 00:24:36;;;;;;;9.70;7.70;;;0.40;99.90;;;;;;5031519;28;20245;-61
2024/01/08 00:27:06;;;;;;;10.83;6.40;;;0.20;99.90;;;;;;5031295;28;20225;-61
2024/01/08 00:29:33;;;;;;;9.47;6.93;;;0.40;99.90;;;;;;5028223;28;20203;-62
2024/01/08 00:32:05;;;;;;;8.30;6.97;;;0.30;99.90;;;;;;5018910;28;20195;-61
2024/01/08 00:34:33;;;;;;;7.43;5.73;;;0.30;99.90;;;;;;5044608;28;20204;-61
2024/01/08 00:37:04;;;;;;;8.10;6.47;;;0.40;99.90;;;;;;5030942;28;20230;-61
2024/01/08 00:39:31;;;;;;;13.10;7.70;;;0.30;99.90;;;;;;5030833;28;20228;-61
2024/01/08 00:41:58;;;;;;;8.43;6.53;;;0.20;99.90;;;;;;5031379;28;20208;-61
2024/01/08 00:44:25;;;;;;;12.10;7.27;;;0.20;99.90;;;;;;5031546;28;20205;-61
2024/01/08 00:46:51;;;;;;;8.87;7.47;;;0.20;99.90;;;;;;5032747;28;20224;-61
2024/01/08 00:49:18;;;;;;;11.80;8.40;;;0.20;99.90;;;;;;5023045;28;20617;-61
2024/01/08 00:51:46;;;;;;;12.10;6.47;;;0.30;99.90;;;;;;5031000;28;20197;-61
2024/01/08 00:54:13;;;;;;;12.47;7.90;;;0.20;99.90;;;;;;5034687;28;20207;-61
2024/01/08 00:56:40;;;;;;;11.47;8.00;;;0.10;99.90;;;;;;5034969;28;20224;-61
2024/01/08 00:59:07;;;;;;;12.17;7.53;;;0.20;99.90;;;;;;5036000;28;20572;-61
2024/01/08 01:01:33;;;;;;;11.10;7.50;;;0.10;99.90;;;;;;5033833;28;20258;-61
2024/01/08 01:04:01;;;;;;;11.90;7.07;;;;;;;;;;5021668;28;20205;-61
2024/01/08 01:06:28;;;;;;;7.90;6.37;;;;;;;;;;5015018;28;20244;-61
2024/01/08 01:08:57;;;;;;;14.47;7.83;;;;;;;;;;5014943;28;20256;-61
2024/01/08 01:11:24;;;;;;;13.20;7.80;;;0.10;99.90;;;;;;5018249;28;20199;-61
2024/01/08 01:13:51;;;;;;;10.10;7.47;;;0.00;99.90;;;;;;5034258;28;20199;-62
2024/01/08 01:16:18;;;;;;;8.77;7.20;;;0.20;99.90;;;;;;5015298;28;20267;-61
2024/01/08 01:18:45;;;;;;;9.47;7.33;;;0.20;99.90;;;;;;5015176;28;20296;-61
2024/01/08 01:21:21;;;;;;;10.00;7.17;;;0.20;99.90;;;;;;5039791;28;20751;-64
2024/01/08 01:23:48;;;;;;;9.27;7.00;;;0.10;99.90;;;;;;5053250;28;20199;-62
2024/01/08 01:26:16;;;;;;;8.53;6.37;;;0.10;99.90;;;;;;5054164;28;20230;-61
2024/01/08 01:28:43;;;;;;;11.00;6.93;;;0.20;99.90;;;;;;5053901;28;20214;-62
2024/01/08 01:31:11;;;;;;;11.13;7.97;;;0.20;99.90;;;;;;5050987;28;20706;-61
2024/01/08 01:33:38;;;;;;;8.23;7.20;;;0.30;99.90;;;;;;5031156;28;20201;-61
2024/01/08 01:36:05;;;;;;;7.13;6.27;;;0.20;99.90;;;;;;5042208;28;20267;-61
2024/01/08 01:38:32;;;;;;;7.83;5.97;;;;;;;;;;5033680;28;20279;-61
2024/01/08 01:41:00;;;;;;;9.30;6.37;;;;;;;;;;5033578;28;20197;-61
2024/01/08 01:43:29;;;;;;;9.30;6.83;;;0.10;99.90;;;;;;5034298;28;20302;-61
2024/01/08 01:46:01;;;;;;;10.63;6.03;;;0.20;99.90;;;;;;5034585;28;20291;-61
2024/01/08 01:48:29;;;;;;;9.23;6.53;;;0.10;99.90;;;;;;5036290;28;20228;-61
2024/01/08 01:50:57;;;;;;;8.20;6.47;;;0.20;99.90;;;;;;5028138;28;20209;-61
2024/01/08 01:53:24;;;;;;;9.80;6.37;;;0.20;99.90;;;;;;5033702;28;20271;-61
2024/01/08 01:55:53;;;;;;;6.93;5.63;;;0.20;99.90;;;;;;5034428;28;20296;-63
2024/01/08 01:58:21;;;;;;;9.37;6.13;;;0.30;99.90;;;;;;5034492;28;20313;-61
2024/01/08 02:00:49;;;;;;;7.47;6.10;;;0.30;99.90;;;;;;5032262;28;20254;-62
2024/01/08 02:03:17;;;;;;;5.83;5.27;;;0.30;99.90;;;;;;5039152;28;20244;-62
2024/01/08 02:05:44;;;;;;;5.80;5.30;;;0.30;99.90;;;;;;5046472;28;20215;-62
2024/01/08 02:08:12;;;;;;;6.70;5.30;;;0.30;99.90;;;;;;5031994;28;20273;-62
2024/01/08 02:10:40;;;;;;;8.67;5.40;;;0.20;99.90;;;;;;5029243;28;20255;-61
2024/01/08 02:13:08;;;;;;;6.20;5.53;;;0.20;99.90;;;;;;5015053;28;20854;-61
2024/01/08 02:15:35;;;;;;;5.97;5.43;;;0.20;99.90;;;;;;5033914;28;20574;-61
2024/01/08 02:18:04;;;;;;;5.77;5.07;;;0.30;99.90;;;;;;5033706;28;20221;-61
2024/01/08 02:20:31;;;;;;;9.03;6.03;;;0.30;99.90;;;;;;5032652;28;20221;-61
2024/01/08 02:22:59;;;;;;;7.53;4.77;;;0.40;99.90;;;;;;5033418;28;20210;-61
2024/01/08 02:25:27;;;;;;;5.30;4.80;;;0.30;99.90;;;;;;5033609;28;20206;-61
2024/01/08 02:27:54;;;;;;;7.43;5.83;;;0.30;99.90;;;;;;5031242;28;20766;-61
2024/01/08 02:30:21;;;;;;;7.63;5.53;;;0.20;99.90;;;;;;5025225;28;20257;-63
2024/01/08 02:32:48;;;;;;;5.83;5.33;;;0.30;99.90;;;;;;5039514;28;20291;-62
2024/01/08 02:35:15;;;;;;;7.33;5.73;;;0.30;99.90;;;;;;5025468;28;20251;-61
2024/01/08 02:37:42;;;;;;;8.20;6.10;;;0.20;99.90;;;;;;5033551;28;20236;-62
2024/01/08 02:40:12;;;;;;;5.80;5.20;;;0.30;99.90;;;;;;5039644;28;20220;-61
2024/01/08 02:42:41;;;;;;;6.10;5.50;;;0.30;99.90;;;;;;5025215;28;20248;-61
2024/01/08 02:45:08;;;;;;;6.03;5.43;;;0.40;99.90;;;;;;5031795;28;20206;-61
2024/01/08 02:47:37;;;;;;;6.40;5.80;;;0.50;99.90;;;;;;5032658;28;20277;-61
2024/01/08 02:50:05;;;;;;;6.40;5.30;;;0.40;99.90;;;;;;5031519;28;20641;-61
2024/01/08 02:52:32;;;;;;;6.37;5.43;;;0.30;99.90;;;;;;5032157;28;20242;-61
2024/01/08 02:55:00;;;;;;;7.37;5.83;;;0.30;99.90;;;;;;5024015;28;20316;-61
2024/01/08 02:57:28;;;;;;;6.43;5.37;;;0.40;99.90;;;;;;5013118;28;20283;-61
2024/01/08 02:59:56;;;;;;;6.90;5.80;;;0.30;99.90;;;;;;5014788;28;20246;-61
2024/01/08 03:02:24;;;;;;;5.90;5.40;;;0.20;99.90;;;;;;5026930;28;20674;-61
2024/01/08 03:04:50;;;;;;;5.93;5.43;;;0.00;99.90;;;;;;5020997;28;20200;-61
2024/01/08 03:07:20;;;;;;;8.27;6.30;;;0.10;99.90;;;;;;5032423;28;20635;-61
2024/01/08 03:09:47;;;;;;;5.73;5.17;;;0.10;99.90;;;;;;5032203;28;20656;-61
2024/01/08 03:12:14;;;;;;;8.40;5.93;;;0.10;99.90;;;;;;5032203;28;20260;-61
2024/01/08 03:14:43;;;;;;;7.10;4.87;;;0.10;99.90;;;;;;5032161;28;20204;-61
2024/01/08 03:17:10;;;;;;;7.27;6.17;;;0.20;99.90;;;;;;5031321;28;20251;-61
2024/01/08 03:19:37;;;;;;;8.47;5.80;;;0.00;99.90;;;;;;5023040;28;20272;-61
2024/01/08 03:22:06;;;;;;;5.93;5.23;;;0.00;99.90;;;;;;5032288;28;20697;-61
2024/01/08 03:24:34;;;;;;;6.73;5.47;;;-0.10;99.90;;;;;;5051403;28;20205;-61
2024/01/08 03:27:05;;;;;;;6.17;4.90;;;0.10;99.90;;;;;;5053874;28;20225;-62
2024/01/08 03:29:32;;;;;;;5.93;5.30;;;0.00;99.90;;;;;;5033172;28;20714;-61
2024/01/08 03:32:00;;;;;;;10.50;6.37;;;0.00;99.90;;;;;;5026060;28;20223;-61
2024/01/08 03:34:27;;;;;;;6.67;5.30;;;0.00;99.90;;;;;;5030667;28;20206;-60
2024/01/08 03:36:54;;;;;;;6.67;6.00;;;-0.20;99.90;;;;;;5030301;28;20284;-61
2024/01/08 03:39:21;;;;;;;7.27;6.57;;;0.00;99.90;;;;;;5031759;28;20647;-61
2024/01/08 03:41:48;;;;;;;8.97;6.00;;;-0.10;99.90;;;;;;5029802;28;20588;-62
2024/01/08 03:44:15;;;;;;;6.97;5.47;;;-0.10;99.90;;;;;;5031563;28;20263;-61
2024/01/08 03:46:42;;;;;;;6.73;6.03;;;-0.20;99.90;;;;;;5031946;28;20697;-61
2024/01/08 03:49:11;;;;;;;5.80;5.17;;;0.00;99.90;;;;;;5032196;28;20218;-61
2024/01/08 03:51:38;;;;;;;6.63;6.03;;;0.00;99.90;;;;;;5031488;28;20216;-61
2024/01/08 03:54:06;;;;;;;6.47;5.97;;;;;;;;;;5038974;28;20626;-61
2024/01/08 03:56:33;;;;;;;8.30;6.30;;;;;;;;;;5037043;28;20203;-60
2024/01/08 03:59:00;;;;;;;7.10;5.50;;;0.00;99.90;;;;;;5031811;28;20267;-61
2024/01/08 04:01:27;;;;;;;8.80;5.57;;;-0.10;99.90;;;;;;5030825;28;20226;-61
2024/01/08 04:03:54;;;;;;;8.07;6.17;;;0.00;99.90;;;;;;5030718;28;20678;-61
2024/01/08 04:06:22;;;;;;;7.40;5.80;;;;;;;;;;5023838;28;20623;-61
2024/01/08 04:08:50;;;;;;;6.00;5.20;;;;;;;;;;5027933;28;20212;-61
2024/01/08 04:11:17;;;;;;;6.73;5.67;;;;;;;;;;5031419;28;20201;-61
2024/01/08 04:13:44;;;;;;;6.63;6.03;;;-0.10;99.90;;;;;;5027780;28;20261;-61
2024/01/08 04:16:11;;;;;;;7.20;6.57;;;0.00;99.90;;;;;;5030484;28;20211;-61
2024/01/08 04:18:38;;;;;;;6.47;5.87;;;0.00;99.90;;;;;;5029131;28;20231;-61
2024/01/08 04:21:05;;;;;;;5.67;5.17;;;-0.10;99.90;;;;;;5029002;28;20223;-62
2024/01/08 04:23:33;;;;;;;7.20;6.17;;;0.20;99.90;;;;;;5031773;28;20206;-62
2024/01/08 04:26:00;;;;;;;8.47;6.07;;;-0.20;99.90;;;;;;5030141;28;20690;-61
2024/01/08 04:28:27;;;;;;;8.50;6.20;;;-0.10;99.90;;;;;;5034620;28;20599;-61
2024/01/08 04:30:54;;;;;;;8.27;6.33;;;;;;;;;;5041608;28;20214;-61
2024/01/08 04:33:21;;;;;;;8.63;6.03;;;-0.40;99.90;;;;;;5027460;28;20199;-61
2024/01/08 04:35:48;;;;;;;7.07;5.27;;;-0.10;99.90;;;;;;5035725;28;20735;-61
2024/01/08 04:38:15;;;;;;;6.50;5.87;;;-0.40;99.90;;;;;;5106315;22;20237;-64
2024/01/08 04:40:44;;;;;;;7.10;6.40;;;-0.30;99.90;;;;;;5097404;28;20221;-64
2024/01/08 04:43:11;;;;;;;10.23;6.67;;;-0.40;99.90;;;;;;5095811;28;20708;-64
2024/01/08 04:45:38;;;;;;;8.37;6.27;;;-0.50;99.90;;;;;;5095270;28;20670;-64
2024/01/08 04:48:05;;;;;;;9.67;6.93;;;;;;;;;;5083898;28;20291;-65
2024/01/08 04:50:32;;;;;;;6.83;6.13;;;-0.60;99.90;;;;;;5091349;28;20349;-64
2024/01/08 04:52:59;;;;;;;7.80;6.27;;;-0.50;99.90;;;;;;5095370;28;20210;-64
2024/01/08 04:55:26;;;;;;;11.13;7.17;;;-0.50;99.90;;;;;;5095190;28;20225;-64
2024/01/08 04:57:55;;;;;;;8.73;6.73;;;-0.40;99.90;;;;;;5086071;28;20235;-64
2024/01/08 05:00:22;;;;;;;9.00;7.30;;;-0.30;99.90;;;;;;5074840;28;20672;-64
2024/01/08 05:02:49;;;;;;;8.03;6.03;;;-0.40;99.90;;;;;;5074950;28;20260;-64
2024/01/08 05:05:16;;;;;;;10.80;7.03;;;-0.60;99.90;;;;;;5081186;28;20210;-64
2024/01/08 05:07:43;;;;;;;9.60;6.27;;;-0.70;99.90;;;;;;5093364;28;20241;-64
2024/01/08 05:10:10;;;;;;;7.77;6.90;;;-0.90;99.90;;;;;;5094051;28;20765;-64
2024/01/08 05:12:37;;;;;;;7.90;7.07;;;-0.80;99.90;;;;;;5095352;28;20667;-64
2024/01/08 05:15:06;;;;;;;8.47;7.07;;;-0.60;99.90;;;;;;5093583;28;20742;-64
2024/01/08 05:17:33;;;;;;;12.67;8.37;;;-1.00;99.90;;;;;;5088658;28;20626;-64
2024/01/08 05:20:00;;;;;;;7.20;6.50;;;-0.70;99.90;;;;;;5101377;28;20222;-64
2024/01/08 05:22:27;;;;;;;8.50;7.13;;;-1.10;99.90;;;;;;5093128;28;20205;-64
2024/01/08 05:24:54;;;;;;;8.60;6.00;;;-0.80;99.90;;;;;;5076902;28;20204;-64
2024/01/08 05:27:21;;;;;;;8.70;6.57;;;-1.10;99.90;;;;;;5086536;28;20695;-64
2024/01/08 05:29:48;;;;;;;6.50;5.90;;;-1.00;99.90;;;;;;5086352;28;20637;-64
2024/01/08 05:32:16;;;;;;;7.33;6.07;;;-1.10;99.90;;;;;;5074535;28;20561;-64
2024/01/08 05:34:43;;;;;;;6.57;5.97;;;-1.30;99.90;;;;;;5074394;28;20195;-64
2024/01/08 05:37:10;;;;;;;8.20;7.33;;;-1.30;99.90;;;;;;5073980;28;20287;-64
2024/01/08 05:39:37;;;;;;;7.43;6.70;;;-1.30;99.90;;;;;;5074172;28;20198;-64
2024/01/08 05:42:09;;;;;;;10.00;7.63;;;-1.30;99.90;;;;;;5083944;28;20293;-64
2024/01/08 05:44:37;;;;;;;6.47;5.90;;;-1.30;99.90;;;;;;5079866;28;20198;-64
2024/01/08 05:47:07;;;;;;;9.77;6.90;;;-1.30;99.90;;;;;;5076392;28;20228;-64
2024/01/08 05:49:36;;;;;;;10.33;7.70;;;-1.00;99.90;;;;;;5077700;28;20287;-64
2024/01/08 05:52:06;;;;;;;9.10;6.77;;;-1.10;99.90;;;;;;5075348;28;20207;-64
2024/01/08 05:54:33;;;;;;;9.23;6.97;;;-0.90;99.90;;;;;;5076786;28;20249;-64
2024/01/08 05:57:04;;;;;;;7.77;6.67;;;-1.10;99.90;;;;;;5076079;28;20199;-64
2024/01/08 05:59:32;;;;;;;10.13;6.40;;;-1.00;99.90;;;;;;5075475;28;20262;-64
2024/01/08 06:01:59;;;;;;;6.60;6.00;;;-1.20;99.90;;;;;;5081557;28;20255;-64
2024/01/08 06:04:26;;;;;;;8.63;7.27;;;-1.20;99.90;;;;;;5079963;28;20209;-64
2024/01/08 06:06:56;;;;;;;8.53;6.27;;;-1.40;99.90;;;;;;5076712;28;20206;-63
2024/01/08 06:09:23;;;;;;;8.37;6.93;;;-1.30;99.90;;;;;;5081771;28;20603;-63
2024/01/08 06:11:50;;;;;;;9.40;7.10;;;-1.00;99.90;;;;;;5079954;28;20202;-63
2024/01/08 06:14:17;;;;;;;9.17;8.20;;;-1.30;99.90;;;;;;5079167;28;20791;-63
2024/01/08 06:16:44;;;;;;;12.37;7.03;;;-1.10;99.90;;;;;;5082074;28;20203;-63
2024/01/08 06:19:11;;;;;;;10.27;6.63;;;-1.20;99.90;;;;;;5077434;28;20207;-63
2024/01/08 06:21:38;;;;;;;7.63;6.80;;;-1.00;99.90;;;;;;5074844;28;20223;-63
2024/01/08 06:24:10;;;;;;;7.83;6.27;;;-1.10;99.90;;;;;;5086995;28;20202;-64
2024/01/08 06:26:37;;;;;;;7.30;6.13;;;-1.20;99.90;;;;;;5078513;28;20197;-64
2024/01/08 06:29:04;;;;;;;6.83;6.23;;;-0.70;99.90;;;;;;5075302;28;20234;-63
2024/01/08 06:31:31;;;;;;;7.23;6.50;;;-1.10;99.90;;;;;;5074087;28;20200;-64
2024/01/08 06:34:00;;;;;;;5.50;5.00;;;-1.10;99.90;;;;;;5077508;28;20210;-63
2024/01/08 06:36:27;;;;;;;7.30;6.43;;;-1.00;99.90;;;;;;5077396;28;20613;-63
2024/01/08 06:38:54;;;;;;;6.90;6.20;;;-0.90;99.90;;;;;;5079492;28;20280;-63
2024/01/08 06:41:22;;;;;;;15.93;7.90;;;-1.10;99.90;;;;;;5085856;28;20225;-64
2024/01/08 06:43:49;;;;;;;7.90;6.33;;;-1.20;99.90;;;;;;5077338;28;20216;-63
2024/01/08 06:46:16;;;;;;;6.57;5.33;;;-0.80;99.90;;;;;;5078065;28;20260;-63
2024/01/08 06:48:44;;;;;;;8.73;5.97;;;-1.20;99.90;;;;;;5083451;28;20271;-63
2024/01/08 06:51:11;;;;;;;5.87;5.27;;;-1.10;99.90;;;;;;5079147;28;20294;-63
2024/01/08 06:53:38;;;;;;;5.83;5.23;;;-0.80;99.90;;;;;;5084026;28;20281;-63
2024/01/08 06:56:07;;;;;;;6.80;5.43;;;-1.10;99.90;;;;;;5081080;28;20193;-64
2024/01/08 06:58:35;;;;;;;6.82;6.22;;;-0.80;99.90;;;;;;5074275;28;20489;-64
2024/01/08 07:01:02;;;;;;;6.40;5.77;;;-1.00;99.90;;;;;;5074797;28;20270;-63
2024/01/08 07:03:29;;;;;;;5.13;4.23;;;-0.80;99.90;;;;;;5078489;28;20242;-63
2024/01/08 07:05:56;;;;;;;6.87;5.40;;;-1.20;99.90;;;;;;5077511;28;20211;-63
2024/01/08 07:08:23;;;;;;;5.10;4.67;;;-0.70;99.90;;;;;;5075564;28;20629;-72
2024/01/08 07:10:51;;;;;;;6.37;5.77;;;-1.00;99.90;;;;;;5078438;28;20208;-68
2024/01/08 07:13:18;;;;;;;4.67;4.17;;;-0.90;99.90;;;;;;5076550;28;20233;-65
2024/01/08 07:15:48;;;;;;;4.57;4.13;;;-0.70;99.90;;;;;;5086219;28;20222;-70
2024/01/08 07:18:17;;;;;;;5.30;4.47;;;-0.80;99.90;;;;;;5078327;28;20217;-63
2024/01/08 07:20:45;;;;;;;5.17;4.77;;;;;;;;;;5090478;28;20223;-65
2024/01/08 07:23:13;;;;;;;5.17;4.67;;;-1.00;99.90;;;;;;5088680;28;20218;-69
2024/01/08 07:25:42;;;;;;;6.13;4.77;;;-0.90;99.90;;;;;;5083673;28;20252;-70
2024/01/08 07:28:10;;;;;;;4.93;4.53;;;-1.00;99.90;;;;;;5091711;28;20221;-63
2024/01/08 07:30:41;;;;;;;5.30;4.83;;;-0.70;99.90;;;;;;5087592;28;20294;-68
2024/01/08 07:33:09;;;;;;;8.10;5.23;;;-0.90;99.90;;;;;;5082710;28;20209;-65
2024/01/08 07:35:37;;;;;;;6.30;5.07;;;-1.10;99.90;;;;;;5071942;28;20261;-64
2024/01/08 07:38:04;;;;;;;5.10;4.60;;;-1.30;99.90;;;;;;5077976;28;20753;-60
2024/01/08 07:40:31;;;;;;;7.60;5.90;;;-0.90;99.90;;;;;;5080349;28;20285;-62
2024/01/08 07:42:59;;;;;;;8.97;5.70;;;-0.90;99.90;;;;;;5072648;28;20286;-72
2024/01/08 07:45:27;;;;;;;6.63;4.97;;;-1.30;99.90;;;;;;5078923;28;20242;-74
2024/01/08 07:47:56;;;;;;;5.83;5.20;;;-1.30;99.90;;;;;;5082052;28;20279;-76
2024/01/08 07:50:25;;;;;;;5.70;5.20;;;-1.20;99.90;;;;;;5077273;28;20203;-67
2024/01/08 07:52:52;;;;;;;7.17;5.47;;;-1.00;99.90;;;;;;5081464;28;20194;-61
2024/01/08 07:55:20;;;;;;;5.47;4.97;;;-1.20;99.90;;;;;;5082135;28;20268;-64
2024/01/08 07:57:47;;;;;;;7.50;6.13;;;-1.50;99.90;;;;;;5087429;28;20299;-66
2024/01/08 08:00:15;;;;;;;7.13;6.43;;;-1.30;99.90;;;;;;5071345;28;20849;-61
2024/01/08 08:02:42;;;;;;;7.17;5.80;;;-1.40;99.90;;;;;;5073521;28;20219;-61
2024/01/08 08:05:09;;;;;;;6.90;6.20;;;-1.40;99.90;;;;;;5081405;28;20211;-61
2024/01/08 08:07:38;;;;;;;7.47;6.13;;;-1.10;99.90;;;;;;5090202;28;20294;-61
2024/01/08 08:10:06;;;;;;;6.17;5.57;;;-0.90;99.90;;;;;;5089646;28;20209;-60
2024/01/08 08:12:33;;;;;;;8.80;5.87;;;-1.20;99.90;;;;;;5075809;28;20194;-60
2024/01/08 08:15:00;;;;;;;8.33;6.37;;;-1.20;99.90;;;;;;5069898;28;20203;-61
2024/01/08 08:17:27;;;;;;;6.73;5.37;;;-1.10;99.90;;;;;;5071171;28;20702;-61
2024/01/08 08:19:54;;;;;;;6.97;6.27;;;-0.90;99.90;;;;;;5071214;28;20211;-61
2024/01/08 08:22:22;;;;;;;6.67;6.07;;;-1.40;99.90;;;;;;5089928;28;20644;-61
2024/01/08 08:24:50;;;;;;;7.77;5.43;;;-1.40;99.90;;;;;;5084401;28;20637;-61
2024/01/08 08:27:17;;;;;;;7.07;5.97;;;-1.00;99.90;;;;;;5079740;28;20279;-59
2024/01/08 08:29:47;;;;;;;8.87;6.63;;;-1.30;99.90;;;;;;5083182;28;20198;-60
2024/01/08 08:32:14;;;;;;;5.40;4.77;;;-1.00;99.90;;;;;;5081432;28;20242;-61
2024/01/08 08:34:41;;;;;;;8.97;5.73;;;-1.00;99.90;;;;;;5072101;28;20234;-61
2024/01/08 08:37:09;;;;;;;6.93;5.57;;;-1.40;99.90;;;;;;5074194;28;20227;-61
2024/01/08 08:39:36;;;;;;;7.50;6.03;;;-1.40;99.90;;;;;;5075163;28;20738;-61
2024/01/08 08:42:08;;;;;;;7.43;6.47;;;;;;;;;;5080889;28;20226;-60
2024/01/08 08:44:35;;;;;;;9.07;6.87;;;-1.20;99.90;;;;;;5073498;28;20723;-61
2024/01/08 08:47:03;;;;;;;7.90;5.93;;;-1.10;99.90;;;;;;5074822;28;20206;-61
2024/01/08 08:49:30;;;;;;;6.87;6.20;;;-1.10;99.90;;;;;;5070324;28;20293;-61
2024/01/08 08:51:57;;;;;;;7.60;6.43;;;-0.90;99.90;;;;;;5070824;28;20261;-61
2024/01/08 08:54:24;;;;;;;7.90;6.63;;;-0.80;99.90;;;;;;5071178;28;20628;-60
2024/01/08 08:56:51;;;;;;;7.13;6.43;;;-1.20;99.90;;;;;;5086555;28;20224;-61
2024/01/08 08:59:19;;;;;;;8.70;5.07;;;-0.60;99.90;;;;;;5077003;28;20199;-61
2024/01/08 09:01:50;;;;;;;8.47;6.40;;;-1.00;99.90;;;;;;5070034;28;21028;-61
2024/01/08 09:04:17;;;;;;;7.60;6.00;;;-0.50;99.90;;;;;;5077285;28;20207;-61
2024/01/08 09:06:44;;;;;;;7.60;6.50;;;-0.80;99.90;;;;;;5091153;28;20199;-61
2024/01/08 09:09:12;;;;;;;10.23;7.23;;;;;;;;;;5091040;28;20658;-61
2024/01/08 09:11:39;;;;;;;11.30;7.73;;;-0.90;99.90;;;;;;5075608;28;20220;-61
2024/01/08 09:14:07;;;;;;;10.70;6.90;;;-0.50;99.90;;;;;;5073047;28;20285;-61
2024/01/08 09:16:36;;;;;;;8.17;6.30;;;-0.50;99.90;;;;;;5076733;28;20207;-61
2024/01/08 09:19:03;;;;;;;8.27;6.33;;;-0.60;99.90;;;;;;5091249;28;20222;-61
2024/01/08 09:21:30;;;;;;;6.83;6.13;;;-0.60;99.90;;;;;;5080923;28;20313;-61
2024/01/08 09:23:57;;;;;;;9.03;6.63;;;-0.80;99.90;;;;;;5074272;28;20285;-61
2024/01/08 09:26:24;;;;;;;11.07;7.20;;;-0.90;99.90;;;;;;5074286;28;20199;-61
2024/01/08 09:28:51;;;;;;;8.77;6.20;;;-0.50;99.90;;;;;;5073964;28;20230;-60
2024/01/08 09:31:20;;;;;;;10.17;6.43;;;-0.70;99.90;;;;;;5083876;28;20227;-60
2024/01/08 09:33:48;;;;;;;9.10;7.27;;;-0.70;99.90;;;;;;5074635;28;20263;-60
2024/01/08 09:36:16;;;;;;;10.20;7.00;;;-0.50;99.90;;;;;;5084831;28;20204;-61
2024/01/08 09:38:43;;;;;;;7.10;5.70;;;-0.60;99.90;;;;;;5082570;28;20711;-61
2024/01/08 09:41:12;;;;;;;10.80;6.53;;;-0.30;99.90;;;;;;5080638;28;20594;-61
2024/01/08 09:43:40;;;;;;;9.47;6.10;;;-0.30;99.90;;;;;;5075045;28;20213;-61
2024/01/08 09:46:09;;;;;;;10.60;6.20;;;-0.30;99.90;;;;;;5076487;28;20227;-61
2024/01/08 09:48:36;;;;;;;6.37;5.53;;;-0.40;99.90;;;;;;5073970;28;20227;-61
2024/01/08 09:51:05;;;;;;;8.83;6.57;;;-0.30;99.90;;;;;;5078421;28;20197;-61
2024/01/08 09:53:33;;;;;;;8.47;6.47;;;-0.30;99.90;;;;;;5086420;28;20193;-61
2024/01/08 09:56:00;;;;;;;8.53;7.03;;;-0.50;99.90;;;;;;5081142;28;20211;-61
2024/01/08 09:58:27;;;;;;;9.00;6.40;;;-0.60;99.90;;;;;;5073862;28;20219;-61
2024/01/08 10:00:54;;;;;;;10.83;7.80;;;-0.40;99.90;;;;;;5080287;28;20242;-60
2024/01/08 10:03:22;;;;;;;8.97;6.77;;;-0.50;99.90;;;;;;5073900;28;20226;-61
2024/01/08 10:05:49;;;;;;;11.17;6.47;;;-0.50;99.90;;;;;;5073675;28;20196;-61
2024/01/08 10:08:17;;;;;;;7.10;5.77;;;-0.40;99.90;;;;;;5073270;28;20222;-61
2024/01/08 10:10:44;;;;;;;9.20;6.27;;;-0.40;99.90;;;;;;5072678;28;20286;-61
2024/01/08 10:13:14;;;;;;;10.37;6.70;;;-0.30;99.90;;;;;;5077152;28;20195;-61
2024/01/08 10:15:47;;;;;;;10.17;6.37;;;-0.40;99.90;;;;;;5073444;28;20207;-60
2024/01/08 10:18:17;;;;;;;9.10;7.37;;;-0.40;99.90;;;;;;5073304;28;20233;-61
2024/01/08 10:20:45;;;;;;;10.97;7.90;;;;;;;;;;5077820;28;20197;-61
2024/01/08 10:23:16;;;;;;;9.40;7.00;;;;;;;;;;5075329;28;20314;-61
2024/01/08 10:25:51;;;;;;;9.67;5.83;;;-0.10;99.90;;;;;;5072426;28;20731;-61
2024/01/08 10:28:18;;;;;;;8.87;5.97;;;-0.20;99.90;;;;;;5081369;28;20303;-61
2024/01/08 10:30:45;;;;;;;10.30;6.73;;;-0.10;99.90;;;;;;5073036;28;20308;-60
2024/01/08 10:33:12;;;;;;;8.67;6.27;;;0.00;99.90;;;;;;5070508;28;20226;-61
2024/01/08 10:35:40;;;;;;;11.43;6.60;;;0.00;99.90;;;;;;5078306;28;20758;-61
2024/01/08 10:38:08;;;;;;;10.53;6.87;;;0.30;99.90;;;;;;5092934;28;20312;-60
2024/01/08 10:40:35;;;;;;;8.07;6.67;;;0.40;99.90;;;;;;5088360;28;20196;-61
2024/01/08 10:43:05;;;;;;;10.97;6.70;;;;;;;;;;5072594;28;20590;-61
2024/01/08 10:45:33;;;;;;;10.07;6.60;;;0.00;99.90;;;;;;5073304;28;20203;-60
2024/01/08 10:48:07;;;;;;;8.30;6.13;;;0.00;99.90;;;;;;5092795;28;20229;-61
2024/01/08 10:50:36;;;;;;;7.90;6.57;;;-0.10;99.90;;;;;;5088695;28;20201;-61
2024/01/08 10:53:04;;;;;;;7.40;6.70;;;0.10;99.90;;;;;;5069790;28;20454;-61
2024/01/08 10:55:32;;;;;;;10.37;6.83;;;0.10;99.90;;;;;;5077947;28;20183;-74
2024/01/08 10:58:04;;;;;;;10.63;6.87;;;0.20;99.90;;;;;;5072218;28;20224;-68
2024/01/08 11:00:33;;;;;;;11.40;7.13;;;0.40;99.90;;;;;;5073503;28;20664;-69
2024/01/08 11:03:01;;;;;;;12.50;7.87;;;0.30;99.90;;;;;;5076789;28;20288;-68
2024/01/08 11:05:29;;;;;;;8.83;5.77;;;0.20;99.90;;;;;;5072425;28;20251;-68
2024/01/08 11:07:57;;;;;;;10.50;7.33;;;0.10;99.90;;;;;;5072309;28;20588;-68
2024/01/08 11:10:24;;;;;;;10.90;7.03;;;0.20;99.90;;;;;;5071077;28;20662;-75
2024/01/08 11:12:55;;;;;;;12.23;7.03;;;0.20;99.90;;;;;;5083553;28;20203;-67
2024/01/08 11:15:25;;;;;;;11.07;7.53;;;;;;;;;;5080896;28;20325;-69
2024/01/08 11:17:54;;;;;;;9.60;6.10;;;;;;;;;;5071849;28;20223;-67
2024/01/08 11:20:41;;;;;;;12.00;8.03;;;;;;;;;;5077896;28;20210;-72
2024/01/08 11:23:32;;;;;;;9.27;6.30;;;;;;;;;;5072016;28;20221;-74
2024/01/08 11:26:00;;;;;;;11.57;7.60;;;0.30;99.90;;;;;;5072016;28;20205;-68
2024/01/08 11:28:27;;;;;;;10.77;7.03;;;0.40;99.90;;;;;;5083664;28;20308;-69
2024/01/08 11:31:20;;;;;;;11.80;7.90;;;0.20;99.90;;;;;;5076005;28;20212;-64
2024/01/08 11:34:20;;;;;;;11.67;7.03;;;0.40;99.90;;;;;;5072626;28;20228;-64
2024/01/08 11:36:48;;;;;;;12.07;8.13;;;0.50;99.90;;;;;;5075569;28;20249;-65
2024/01/08 11:39:19;;;;;;;8.67;6.77;;;0.60;99.90;;;;;;5085184;28;20216;-64
2024/01/08 11:41:47;;;;;;;9.73;7.03;;;;;;;;;;5073677;28;20201;-64
2024/01/08 11:44:15;;;;;;;11.97;7.83;;;;;;;;;;5071962;28;20208;-67
2024/01/08 11:46:42;;;;;;;13.23;8.07;;;;;;;;;;5077441;28;20707;-72
2024/01/08 11:49:11;;;;;;;8.20;6.63;;;;;;;;;;5091989;28;20721;-65
2024/01/08 11:51:42;;;;;;;12.03;7.17;;;;;;;;;;5084592;28;20201;-68
2024/01/08 11:54:14;;;;;;;8.67;6.13;;;0.20;99.90;;;;;;5087775;28;20655;-71
2024/01/08 11:56:41;;;;;;;8.47;6.60;;;0.20;99.90;;;;;;5071988;28;20186;-69
2024/01/08 11:59:09;;;;;;;10.77;7.27;;;0.50;99.90;;;;;;5071582;28;20225;-70
2024/01/08 12:01:36;;;;;;;7.87;6.10;;;0.60;99.90;;;;;;5087414;28;20198;-71
2024/01/08 12:04:04;;;;;;;8.47;6.23;;;;;;;;;;5092008;28;20209;-72
2024/01/08 12:06:32;;;;;;;10.53;7.67;;;0.70;99.90;;;;;;5092106;28;20197;-74
2024/01/08 12:08:59;;;;;;;12.13;7.60;;;1.00;99.90;;;;;;5091678;28;20224;-72
2024/01/08 12:11:26;;;;;;;9.57;6.30;;;0.90;99.90;;;;;;5090750;28;20745;-74
2024/01/08 12:13:54;;;;;;;12.13;6.33;;;0.80;99.90;;;;;;5091923;28;20199;-72
2024/01/08 12:16:21;;;;;;;10.67;7.03;;;;;;;;;;5091718;28;20780;-73
2024/01/08 12:18:49;;;;;;;8.97;6.67;;;;;;;;;;5092287;28;20316;-71
2024/01/08 12:21:16;;;;;;;11.73;7.53;;;0.80;99.90;;;;;;5090935;28;20286;-73
2024/01/08 12:23:44;;;;;;;11.53;7.40;;;0.80;99.90;;;;;;5089785;28;20263;-72
2024/01/08 12:26:12;;;;;;;11.60;7.40;;;0.90;99.90;;;;;;5084048;28;20555;-68
2024/01/08 12:28:42;;;;;;;9.83;7.20;;;0.80;99.90;;;;;;5080802;28;20236;-68
2024/01/08 12:31:09;;;;;;;13.37;8.43;;;0.80;99.90;;;;;;5079129;28;20720;-68
2024/01/08 12:33:36;;;;;;;10.67;7.73;;;0.90;99.90;;;;;;5071894;28;20194;-68
2024/01/08 12:36:04;;;;;;;12.70;7.77;;;0.70;99.90;;;;;;5071180;28;20261;-69
2024/01/08 12:38:31;;;;;;;11.53;7.93;;;0.70;99.90;;;;;;5081556;28;20231;-72
2024/01/08 12:41:00;;;;;;;14.37;8.10;;;0.70;99.90;;;;;;5083000;28;20250;-67
2024/01/08 12:43:27;;;;;;;11.23;7.50;;;0.70;99.90;;;;;;5076630;28;20220;-68
2024/01/08 12:45:53;;;;;;;13.53;7.90;;;0.80;99.90;;;;;;5076734;28;20230;-72
2024/01/08 12:48:20;;;;;;;9.10;7.13;;;0.90;99.90;;;;;;5083115;28;20270;-70
2024/01/08 12:50:48;;;;;;;10.67;6.97;;;0.80;99.90;;;;;;5079673;28;20277;-77
2024/01/08 12:53:15;;;;;;;9.67;6.67;;;0.90;99.90;;;;;;5081798;28;20646;-76
2024/01/08 12:55:42;;;;;;;10.67;7.57;;;0.70;99.90;;;;;;5078483;28;20208;-72
2024/01/08 12:58:10;;;;;;;12.50;7.43;;;0.50;99.90;;;;;;5075182;28;20302;-73
2024/01/08 13:00:37;;;;;;;11.43;7.70;;;0.50;99.90;;;;;;5082594;28;20243;-75